Time;durP1;ratioP1;P1;durP2;ratioP2;P2;SDS_P1;SDS_P2;PMS_P1;PMS_P2;Temp;Humidity;BMP_temperature;BMP_pressure;BME280_temperature;BME280_humidity;BME280_pressure;Samples;Min_cycle;Max_cycle;Signal;HPM_P1;HPM_P2
2023/06/27 00:00:39;;;;;;;;;;;13.80;99.90;;;;;;5073673;28;20584;-61
2023/06/27 00:03:05;;;;;;;0.20;0.20;;;13.80;99.90;;;;;;5072997;28;19981;-61
2023/06/27 00:05:31;;;;;;;0.35;0.35;;;13.90;99.90;;;;;;5073032;28;20049;-61
2023/06/27 00:07:57;;;;;;;;;;;13.90;99.90;;;;;;5073561;28;20044;-61
2023/06/27 00:10:23;;;;;;;0.20;0.20;;;13.90;99.90;;;;;;5073152;28;19931;-61
2023/06/27 00:12:53;;;;;;;0.35;0.35;;;13.50;99.90;;;;;;5073212;28;20509;-61
2023/06/27 00:15:19;;;;;;;0.30;0.30;;;13.50;99.90;;;;;;5073109;28;20193;-61
2023/06/27 00:17:45;;;;;;;0.80;0.75;;;14.10;99.90;;;;;;5072777;28;20131;-61
2023/06/27 00:20:12;;;;;;;4.50;0.65;;;13.80;99.90;;;;;;5072941;28;20052;-61
2023/06/27 00:22:40;;;;;;;0.40;0.40;;;13.80;99.90;;;;;;5073165;28;20067;-61
2023/06/27 00:25:09;;;;;;;0.70;0.70;;;13.60;99.90;;;;;;5073047;28;20083;-61
2023/06/27 00:27:35;;;;;;;0.63;0.63;;;13.60;99.90;;;;;;5072973;28;20054;-61
2023/06/27 00:30:01;;;;;;;1.17;0.68;;;14.00;99.90;;;;;;5072834;28;20127;-62
2023/06/27 00:32:26;;;;;;;0.20;0.20;;;13.50;99.90;;;;;;5072772;28;20094;-61
2023/06/27 00:34:52;;;;;;;;;;;13.60;99.90;;;;;;5072952;28;20041;-61
2023/06/27 00:37:18;;;;;;;0.40;0.40;;;13.70;99.90;;;;;;5072733;28;19927;-61
2023/06/27 00:39:44;;;;;;;0.25;0.25;;;13.70;99.90;;;;;;5072919;28;20095;-61
2023/06/27 00:42:09;;;;;;;0.45;0.45;;;13.40;99.90;;;;;;5072687;28;20049;-61
2023/06/27 00:44:35;;;;;;;;;;;13.60;99.90;;;;;;5072781;28;20056;-62
2023/06/27 00:47:01;;;;;;;0.22;0.22;;;13.40;99.90;;;;;;5072314;28;19920;-62
2023/06/27 00:49:27;;;;;;;;;;;13.60;99.90;;;;;;5072524;28;20048;-61
2023/06/27 00:51:54;;;;;;;0.20;0.20;;;13.40;99.90;;;;;;5072259;28;19920;-61
2023/06/27 00:54:21;;;;;;;1.08;0.63;;;13.50;99.90;;;;;;5072206;28;20413;-61
2023/06/27 00:56:49;;;;;;;0.40;0.40;;;13.30;99.90;;;;;;5072113;28;20048;-61
2023/06/27 00:59:15;;;;;;;0.30;0.30;;;13.50;99.90;;;;;;5072001;28;20048;-61
2023/06/27 01:01:40;;;;;;;0.20;0.20;;;13.60;99.90;;;;;;5071919;28;20055;-61
2023/06/27 01:04:06;;;;;;;;;;;13.20;99.90;;;;;;5071882;28;20056;-61
2023/06/27 01:06:35;;;;;;;0.95;0.55;;;13.40;99.90;;;;;;5071982;28;19932;-61
2023/06/27 01:09:05;;;;;;;0.50;0.50;;;13.30;99.90;;;;;;5072011;28;20131;-62
2023/06/27 01:11:41;;;;;;;0.30;0.30;;;13.50;99.90;;;;;;5071954;28;20052;-61
2023/06/27 01:14:09;;;;;;;0.20;0.20;;;13.20;99.90;;;;;;5071704;28;20097;-61
2023/06/27 01:16:36;;;;;;;0.43;0.43;;;13.50;99.90;;;;;;5071525;28;20055;-61
2023/06/27 01:19:09;;;;;;;3.10;0.38;;;13.10;99.90;;;;;;5071710;28;20048;-61
2023/06/27 01:21:37;;;;;;;0.30;0.30;;;13.40;99.90;;;;;;5071641;28;20049;-61
2023/06/27 01:24:06;;;;;;;0.40;0.40;;;13.30;99.90;;;;;;5070163;28;20052;-61
2023/06/27 01:26:32;;;;;;;0.30;0.30;;;13.30;99.90;;;;;;5071509;28;20763;-61
2023/06/27 01:28:58;;;;;;;0.20;0.20;;;13.40;99.90;;;;;;5070770;28;20136;-61
2023/06/27 01:31:31;;;;;;;;;;;13.20;99.90;;;;;;5071921;28;20131;-61
2023/06/27 01:34:02;;;;;;;0.35;0.35;;;13.20;99.90;;;;;;5071418;28;19920;-61
2023/06/27 01:37:00;;;;;;;0.35;0.35;;;12.90;99.90;;;;;;5071416;28;20693;-61
2023/06/27 01:39:31;;;;;;;0.45;0.45;;;13.00;99.90;;;;;;5071128;28;20049;-61
2023/06/27 01:42:02;;;;;;;0.30;0.30;;;13.10;99.90;;;;;;5071510;28;20052;-61
2023/06/27 01:44:31;;;;;;;0.40;0.40;;;13.00;99.90;;;;;;5071300;28;20099;-61
2023/06/27 01:46:57;;;;;;;0.20;0.20;;;13.30;99.90;;;;;;5069972;28;20051;-61
2023/06/27 01:49:24;;;;;;;0.20;0.20;;;13.00;99.90;;;;;;5071221;28;20694;-61
2023/06/27 01:51:49;;;;;;;0.38;0.38;;;13.10;99.90;;;;;;5071032;28;20504;-61
2023/06/27 01:54:15;;;;;;;0.30;0.30;;;13.60;99.90;;;;;;5070973;28;20051;-61
2023/06/27 01:56:41;;;;;;;0.40;0.40;;;12.80;99.90;;;;;;5071248;28;20574;-61
2023/06/27 01:59:07;;;;;;;0.47;0.47;;;13.10;99.90;;;;;;5071089;28;20534;-61
2023/06/27 02:01:32;;;;;;;0.38;0.38;;;13.20;99.90;;;;;;5071130;28;20045;-61
2023/06/27 02:03:58;;;;;;;0.20;0.20;;;13.00;99.90;;;;;;5070997;28;20074;-61
2023/06/27 02:06:24;;;;;;;0.30;0.30;;;13.00;99.90;;;;;;5070885;28;20063;-61
2023/06/27 02:08:50;;;;;;;0.55;0.55;;;12.90;99.90;;;;;;5070913;28;20048;-61
2023/06/27 02:11:16;;;;;;;0.20;0.20;;;12.90;99.90;;;;;;5069770;28;20107;-61
2023/06/27 02:13:41;;;;;;;0.22;0.22;;;13.00;99.90;;;;;;5071038;28;20064;-61
2023/06/27 02:16:07;;;;;;;0.35;0.35;;;12.70;99.90;;;;;;5071037;28;20045;-61
2023/06/27 02:18:32;;;;;;;;;;;12.80;99.90;;;;;;5071499;28;20048;-61
2023/06/27 02:20:58;;;;;;;0.32;0.32;;;12.40;99.90;;;;;;5070925;28;20018;-61
2023/06/27 02:23:25;;;;;;;0.75;0.60;;;13.30;99.90;;;;;;5070630;28;20033;-61
2023/06/27 02:25:51;;;;;;;0.45;0.30;;;13.10;99.90;;;;;;5070875;28;20155;-62
2023/06/27 02:28:16;;;;;;;0.20;0.20;;;13.10;99.90;;;;;;5070910;28;20136;-61
2023/06/27 02:30:42;;;;;;;0.40;0.40;;;12.80;99.90;;;;;;5070871;28;20045;-61
2023/06/27 02:33:08;;;;;;;0.40;0.40;;;12.90;99.90;;;;;;5070801;28;20044;-61
2023/06/27 02:35:33;;;;;;;0.57;0.57;;;13.10;99.90;;;;;;5069839;28;20063;-61
2023/06/27 02:37:59;;;;;;;;;;;12.50;99.90;;;;;;5071088;28;20055;-61
2023/06/27 02:40:25;;;;;;;0.32;0.32;;;12.60;99.90;;;;;;5073083;28;19986;-61
2023/06/27 02:42:50;;;;;;;0.20;0.20;;;12.80;99.90;;;;;;5074704;28;20085;-61
2023/06/27 02:45:17;;;;;;;0.38;0.38;;;13.00;99.90;;;;;;5074688;28;20088;-61
2023/06/27 02:47:42;;;;;;;0.60;0.60;;;12.80;99.90;;;;;;5074576;28;20065;-61
2023/06/27 02:50:08;;;;;;;0.30;0.30;;;12.50;99.90;;;;;;5074465;28;20166;-61
2023/06/27 02:52:34;;;;;;;0.30;0.30;;;13.10;99.90;;;;;;5074289;28;20129;-61
2023/06/27 02:55:00;;;;;;;0.52;0.30;;;12.90;99.90;;;;;;5074539;28;20045;-61
2023/06/27 02:57:25;;;;;;;0.30;0.30;;;12.60;99.90;;;;;;5074345;28;20052;-61
2023/06/27 02:59:51;;;;;;;0.30;0.30;;;12.80;99.90;;;;;;5074320;28;20054;-60
2023/06/27 03:02:17;;;;;;;0.70;0.45;;;12.80;99.90;;;;;;5074120;28;20127;-60
2023/06/27 03:04:44;;;;;;;0.20;0.20;;;12.80;99.90;;;;;;5074049;28;20496;-61
2023/06/27 03:07:10;;;;;;;0.20;0.20;;;12.60;99.90;;;;;;5073961;28;20056;-61
2023/06/27 03:09:36;;;;;;;0.40;0.40;;;12.60;99.90;;;;;;5074270;28;20072;-61
2023/06/27 03:12:01;;;;;;;0.47;0.47;;;12.60;99.90;;;;;;5074126;28;20102;-61
2023/06/27 03:14:27;;;;;;;0.43;0.43;;;12.80;99.90;;;;;;5074034;28;20365;-61
2023/06/27 03:16:54;;;;;;;0.40;0.40;;;12.50;99.90;;;;;;5073983;28;20774;-61
2023/06/27 03:19:20;;;;;;;0.40;0.40;;;12.40;99.90;;;;;;5073802;28;20139;-61
2023/06/27 03:21:45;;;;;;;0.40;0.40;;;12.70;99.90;;;;;;5073757;28;20139;-61
2023/06/27 03:24:11;;;;;;;0.20;0.20;;;12.60;99.90;;;;;;5073792;28;20161;-61
2023/06/27 03:26:37;;;;;;;0.30;0.30;;;12.30;99.90;;;;;;5073891;28;20055;-62
2023/06/27 03:29:02;;;;;;;0.30;0.30;;;12.80;99.90;;;;;;5073794;28;20102;-61
2023/06/27 03:31:28;;;;;;;0.40;0.40;;;12.90;99.90;;;;;;5073633;28;20044;-61
2023/06/27 03:33:56;;;;;;;0.40;0.40;;;12.50;99.90;;;;;;5073604;28;20359;-61
2023/06/27 03:36:24;;;;;;;0.30;0.30;;;12.40;99.90;;;;;;5073424;28;20459;-61
2023/06/27 03:38:50;;;;;;;0.20;0.20;;;12.60;99.90;;;;;;5073680;28;20059;-61
2023/06/27 03:41:16;;;;;;;0.20;0.20;;;13.00;99.90;;;;;;5072497;28;20064;-60
2023/06/27 03:43:42;;;;;;;0.30;0.30;;;15.30;99.90;;;;;;5073420;28;20135;-61
2023/06/27 03:46:12;;;;;;;0.25;0.25;;;12.30;99.90;;;;;;5073464;28;20132;-61
2023/06/27 03:48:38;;;;;;;0.40;0.40;;;12.60;99.90;;;;;;5072250;28;20044;-61
2023/06/27 03:51:04;;;;;;;0.40;0.40;;;12.90;99.90;;;;;;5072713;28;20492;-61
2023/06/27 03:53:29;;;;;;;0.20;0.20;;;12.80;99.90;;;;;;5072383;28;20131;-61
2023/06/27 03:55:55;;;;;;;0.52;0.52;;;12.80;99.90;;;;;;5073500;28;20115;-61
2023/06/27 03:58:21;;;;;;;0.55;0.55;;;12.80;99.90;;;;;;5073128;28;20048;-61
2023/06/27 04:00:47;;;;;;;0.30;0.30;;;12.90;99.90;;;;;;5073176;28;20052;-61
2023/06/27 04:03:12;;;;;;;0.30;0.30;;;12.80;99.90;;;;;;5072871;28;20099;-61
2023/06/27 04:05:38;;;;;;;0.30;0.30;;;13.30;99.90;;;;;;5072914;28;20142;-61
2023/06/27 04:08:04;;;;;;;0.30;0.30;;;12.70;99.90;;;;;;5073311;28;20055;-61
2023/06/27 04:10:29;;;;;;;0.25;0.25;;;13.00;99.90;;;;;;5073003;28;20481;-60
2023/06/27 04:12:56;;;;;;;0.30;0.30;;;12.80;99.90;;;;;;5073017;28;20052;-61
2023/06/27 04:15:22;;;;;;;0.20;0.20;;;13.10;99.90;;;;;;5072867;28;20094;-61
2023/06/27 04:17:48;;;;;;;0.38;0.38;;;13.30;99.90;;;;;;5072837;28;20044;-60
2023/06/27 04:20:14;;;;;;;0.90;0.40;;;13.20;99.90;;;;;;5072702;28;20055;-60
2023/06/27 04:22:39;;;;;;;0.20;0.20;;;13.10;99.90;;;;;;5072755;28;20508;-60
2023/06/27 04:25:08;;;;;;;0.30;0.30;;;13.00;99.90;;;;;;5072830;28;20166;-61
2023/06/27 04:27:34;;;;;;;0.50;0.50;;;13.60;99.90;;;;;;5072696;28;20465;-61
2023/06/27 04:29:59;;;;;;;0.30;0.30;;;13.40;99.90;;;;;;5072709;28;20113;-61
2023/06/27 04:32:25;;;;;;;0.28;0.28;;;13.50;99.90;;;;;;5072763;28;20127;-61
2023/06/27 04:34:51;;;;;;;0.30;0.30;;;13.60;99.90;;;;;;5072777;28;20047;-61
2023/06/27 04:37:18;;;;;;;0.20;0.20;;;13.60;99.90;;;;;;5072545;28;20084;-60
2023/06/27 04:39:44;;;;;;;1.02;0.50;;;13.90;99.90;;;;;;5072446;28;20052;-61
2023/06/27 04:42:10;;;;;;;0.43;0.43;;;14.00;99.90;;;;;;5072395;28;20424;-61
2023/06/27 04:44:35;;;;;;;1.15;0.63;;;14.30;99.90;;;;;;5072234;28;20041;-61
2023/06/27 04:47:01;;;;;;;0.30;0.30;;;14.00;99.90;;;;;;5072237;28;20047;-61
2023/06/27 04:49:26;;;;;;;;;;;14.60;99.90;;;;;;5072704;28;20071;-61
2023/06/27 04:51:52;;;;;;;0.20;0.20;;;14.40;99.90;;;;;;5072264;28;19924;-60
2023/06/27 04:54:18;;;;;;;0.30;0.30;;;14.60;99.90;;;;;;5072208;28;20044;-60
2023/06/27 04:56:43;;;;;;;0.30;0.30;;;14.70;99.90;;;;;;5072135;28;20125;-61
2023/06/27 04:59:10;;;;;;;0.25;0.25;;;14.70;99.90;;;;;;5072000;28;20545;-62
2023/06/27 05:01:36;;;;;;;0.25;0.25;;;14.80;99.90;;;;;;5071886;28;20048;-61
2023/06/27 05:04:04;;;;;;;0.30;0.30;;;14.90;99.90;;;;;;5070809;28;20063;-61
2023/06/27 05:06:34;;;;;;;2.22;2.05;;;14.90;99.90;;;;;;5072094;28;20063;-61
2023/06/27 05:09:01;;;;;;;0.20;0.20;;;15.40;99.90;;;;;;5071922;28;20098;-61
2023/06/27 05:11:27;;;;;;;0.20;0.20;;;15.10;99.90;;;;;;5071780;28;20049;-61
2023/06/27 05:13:53;;;;;;;0.20;0.20;;;15.30;99.90;;;;;;5071631;28;20049;-61
2023/06/27 05:16:22;;;;;;;0.30;0.30;;;15.40;99.90;;;;;;5071560;28;20048;-61
2023/06/27 05:18:48;;;;;;;0.20;0.20;;;15.20;99.90;;;;;;5071472;28;20496;-61
2023/06/27 05:21:14;;;;;;;0.20;0.20;;;15.40;99.90;;;;;;5071613;28;20067;-61
2023/06/27 05:23:39;;;;;;;;;;;15.90;99.90;;;;;;5071969;28;20391;-60
2023/06/27 05:26:05;;;;;;;0.30;0.30;;;15.90;99.90;;;;;;5071591;28;19966;-61
2023/06/27 05:28:30;;;;;;;;;;;15.90;99.90;;;;;;5071867;28;20558;-60
2023/06/27 05:30:57;;;;;;;0.20;0.20;;;16.30;99.90;;;;;;5071524;28;19931;-61
2023/06/27 05:33:23;;;;;;;2.17;0.50;;;16.00;99.90;;;;;;5071557;28;20045;-61
2023/06/27 05:35:48;;;;;;;0.28;0.28;;;16.70;99.90;;;;;;5071437;28;20498;-61
2023/06/27 05:38:15;;;;;;;;;;;16.60;99.90;;;;;;5071802;28;20048;-61
2023/06/27 05:40:40;;;;;;;0.20;0.20;;;16.90;99.90;;;;;;5071229;28;19920;-61
2023/06/27 05:43:06;;;;;;;;;;;16.70;99.90;;;;;;5071523;28;20090;-60
2023/06/27 05:45:32;;;;;;;0.20;0.20;;;16.60;99.90;;;;;;5071078;28;20065;-61
2023/06/27 05:47:57;;;;;;;;;;;16.80;99.90;;;;;;5071468;28;20396;-60
2023/06/27 05:50:23;;;;;;;0.20;0.20;;;16.90;99.90;;;;;;5071254;28;19928;-61
2023/06/27 05:52:48;;;;;;;;;;;17.40;99.90;;;;;;5071602;28;20044;-61
2023/06/27 05:55:14;;;;;;;0.20;0.20;;;17.60;99.90;;;;;;5071135;28;19920;-61
2023/06/27 05:57:40;;;;;;;;;;;17.80;99.90;;;;;;5071444;28;20048;-60
2023/06/27 06:00:10;;;;;;;0.52;0.30;;;17.70;99.90;;;;;;5070876;28;19924;-61
2023/06/27 06:02:37;;;;;;;0.32;0.32;;;17.90;99.90;;;;;;5071170;28;20093;-61
2023/06/27 06:05:04;;;;;;;0.20;0.20;;;17.30;99.90;;;;;;5070707;28;20147;-61
2023/06/27 06:07:31;;;;;;;0.20;0.20;;;17.80;99.90;;;;;;5070824;28;20588;-60
2023/06/27 06:09:57;;;;;;;0.20;0.20;;;17.60;99.90;;;;;;5071001;28;20047;-61
2023/06/27 06:12:22;;;;;;;;;;;17.70;99.90;;;;;;5071262;28;20127;-61
2023/06/27 06:14:48;;;;;;;0.22;0.22;;;18.10;99.90;;;;;;5070502;28;19969;-60
2023/06/27 06:17:13;;;;;;;;;;;17.90;99.90;;;;;;5071369;28;20508;-61
2023/06/27 06:19:40;;;;;;;0.13;0.13;;;18.20;99.90;;;;;;5070883;28;19928;-62
2023/06/27 06:22:06;;;;;;;0.17;0.17;;;18.00;99.90;;;;;;5070923;28;20123;-61
2023/06/27 06:24:32;;;;;;;1.08;1.08;;;18.30;99.90;;;;;;5070850;28;20528;-61
2023/06/27 06:26:57;;;;;;;0.22;0.22;;;18.60;99.90;;;;;;5071071;28;20055;-61
2023/06/27 06:29:23;;;;;;;0.20;0.20;;;18.30;99.90;;;;;;5070853;28;20488;-61
2023/06/27 06:31:49;;;;;;;;;;;18.50;99.90;;;;;;5071664;28;20113;-61
2023/06/27 06:34:14;;;;;;;0.20;0.20;;;18.50;99.90;;;;;;5071111;28;19924;-61
2023/06/27 06:36:41;;;;;;;;;;;18.70;99.90;;;;;;5071095;28;20103;-61
2023/06/27 06:39:06;;;;;;;0.28;0.28;;;18.60;99.90;;;;;;5070698;28;20414;-61
2023/06/27 06:41:32;;;;;;;0.13;0.13;;;18.60;99.90;;;;;;5070663;28;20052;-61
2023/06/27 06:43:58;;;;;;;0.35;0.35;;;18.70;99.90;;;;;;5069240;28;20492;-61
2023/06/27 06:46:24;;;;;;;0.10;0.10;;;18.90;99.90;;;;;;5070969;28;20053;-61
2023/06/27 06:48:50;;;;;;;0.43;0.43;;;18.90;99.90;;;;;;5070718;28;20045;-61
2023/06/27 06:51:16;;;;;;;0.20;0.20;;;19.20;99.90;;;;;;5070568;28;20131;-63
2023/06/27 06:53:42;;;;;;;0.20;0.20;;;19.00;99.90;;;;;;5070493;28;20041;-61
2023/06/27 06:56:08;;;;;;;0.30;0.30;;;18.90;99.90;;;;;;5070470;28;20050;-61
2023/06/27 06:58:34;;;;;;;0.80;0.80;;;19.30;99.90;;;;;;5070341;28;20101;-61
2023/06/27 07:00:59;;;;;;;0.43;0.43;;;19.00;99.90;;;;;;5070595;28;20052;-61
2023/06/27 07:03:25;;;;;;;0.15;0.15;;;19.50;99.90;;;;;;5070247;28;20048;-61
2023/06/27 07:05:51;;;;;;;0.10;0.10;;;19.30;99.90;;;;;;5070566;28;20056;-61
2023/06/27 07:08:16;;;;;;;0.10;0.10;;;19.20;99.90;;;;;;5070337;28;20052;-61
2023/06/27 07:10:42;;;;;;;0.20;0.20;;;19.50;99.90;;;;;;5070533;28;20080;-61
2023/06/27 07:13:08;;;;;;;0.22;0.22;;;19.50;99.90;;;;;;5070479;28;20369;-60
2023/06/27 07:15:33;;;;;;;1.13;1.05;;;19.50;99.90;;;;;;5070157;28;20136;-61
2023/06/27 07:17:59;;;;;;;0.52;0.45;;;19.60;99.90;;;;;;5070397;28;20056;-61
2023/06/27 07:20:25;;;;;;;0.10;0.10;;;19.30;99.90;;;;;;5070365;28;20094;-61
2023/06/27 07:22:51;;;;;;;0.10;0.10;;;19.80;99.90;;;;;;5070266;28;20508;-61
2023/06/27 07:25:17;;;;;;;0.22;0.22;;;19.70;99.90;;;;;;5070092;28;20131;-61
2023/06/27 07:27:44;;;;;;;0.20;0.20;;;19.30;99.90;;;;;;5072667;28;20106;-61
2023/06/27 07:30:10;;;;;;;0.10;0.10;;;19.10;99.90;;;;;;5073547;28;20835;-61
2023/06/27 07:32:36;;;;;;;0.20;0.20;;;19.30;99.90;;;;;;5073722;28;20047;-62
2023/06/27 07:35:02;;;;;;;0.10;0.10;;;19.50;99.90;;;;;;5073651;28;20206;-61
2023/06/27 07:37:28;;;;;;;0.20;0.20;;;19.70;99.90;;;;;;5073595;28;20052;-61
2023/06/27 07:39:53;;;;;;;0.20;0.20;;;19.40;99.90;;;;;;5073477;28;20105;-61
2023/06/27 07:42:19;;;;;;;0.10;0.10;;;19.20;99.90;;;;;;5073308;28;20048;-62
2023/06/27 07:44:45;;;;;;;0.17;0.17;;;19.80;99.90;;;;;;5073477;28;20040;-61
2023/06/27 07:47:10;;;;;;;0.10;0.10;;;19.50;99.90;;;;;;5073181;28;20056;-62
2023/06/27 07:49:39;;;;;;;0.10;0.10;;;19.80;99.90;;;;;;5073472;28;20093;-61
2023/06/27 07:52:09;;;;;;;0.10;0.10;;;20.00;99.90;;;;;;5073325;28;20055;-61
2023/06/27 07:54:36;;;;;;;0.52;0.52;;;20.30;99.90;;;;;;5073236;28;20060;-61
2023/06/27 07:57:02;;;;;;;0.17;0.17;;;20.30;99.90;;;;;;5073004;28;20093;-61
2023/06/27 07:59:27;;;;;;;0.10;0.10;;;20.20;99.90;;;;;;5073181;28;20052;-61
2023/06/27 08:01:54;;;;;;;0.77;0.77;;;20.20;99.90;;;;;;5073202;28;20049;-61
2023/06/27 08:04:20;;;;;;;0.22;0.22;;;20.50;99.90;;;;;;5072858;28;20504;-61
2023/06/27 08:06:46;;;;;;;0.47;0.47;;;20.20;99.90;;;;;;5073064;28;20385;-61
2023/06/27 08:09:12;;;;;;;0.25;0.25;;;20.30;99.90;;;;;;5073005;28;20046;-61
2023/06/27 08:11:38;;;;;;;0.15;0.15;;;20.40;99.90;;;;;;5072881;28;20128;-61
2023/06/27 08:14:03;;;;;;;0.28;0.28;;;20.40;99.90;;;;;;5073110;28;20109;-61
2023/06/27 08:16:29;;;;;;;0.10;0.10;;;20.80;99.90;;;;;;5073076;28;20059;-61
2023/06/27 08:18:56;;;;;;;1.23;0.45;;;20.40;99.90;;;;;;5072971;28;20048;-61
2023/06/27 08:21:21;;;;;;;0.00;0.00;;;20.20;99.90;;;;;;5073121;28;20045;-61
2023/06/27 08:23:47;;;;;;;0.10;0.10;;;20.70;99.90;;;;;;5072955;28;20557;-63
2023/06/27 08:26:17;;;;;;;0.40;0.40;;;20.90;99.90;;;;;;5072628;28;20127;-60
2023/06/27 08:28:43;;;;;;;0.10;0.10;;;21.00;99.90;;;;;;5072575;28;20440;-62
2023/06/27 08:31:13;;;;;;;0.20;0.20;;;21.30;99.90;;;;;;5072712;28;20447;-61
2023/06/27 08:33:39;;;;;;;0.10;0.10;;;20.80;99.90;;;;;;5072596;28;20080;-61
2023/06/27 08:36:06;;;;;;;0.52;0.20;;;21.60;99.90;;;;;;5072448;28;20408;-61
2023/06/27 08:38:31;;;;;;;1.13;0.77;;;21.50;99.90;;;;;;5072231;28;20049;-62
2023/06/27 08:40:57;;;;;;;8.90;1.20;;;21.30;99.90;;;;;;5072538;28;20054;-62
2023/06/27 08:43:24;;;;;;;0.10;0.10;;;21.30;99.90;;;;;;5072281;28;20124;-61
2023/06/27 08:45:52;;;;;;;0.10;0.10;;;21.10;99.90;;;;;;5072395;28;20404;-61
2023/06/27 08:48:18;;;;;;;0.60;0.25;;;21.00;99.90;;;;;;5072419;28;20049;-61
2023/06/27 08:50:43;;;;;;;0.20;0.20;;;20.80;99.90;;;;;;5072332;28;20437;-62
2023/06/27 08:53:17;;;;;;;0.75;0.50;;;20.50;99.90;;;;;;5072342;28;20071;-61
2023/06/27 08:55:51;;;;;;;0.30;0.30;;;20.30;99.90;;;;;;5072387;28;20048;-61
2023/06/27 08:58:23;;;;;;;0.28;0.28;;;20.50;99.90;;;;;;5072077;28;20083;-61
2023/06/27 09:00:50;;;;;;;0.22;0.22;;;20.60;99.90;;;;;;5072118;28;20147;-61
2023/06/27 09:03:16;;;;;;;0.13;0.13;;;20.80;99.90;;;;;;5071815;28;20064;-61
2023/06/27 09:05:42;;;;;;;0.10;0.10;;;20.70;99.90;;;;;;5071761;28;20049;-62
2023/06/27 09:08:09;;;;;;;0.10;0.10;;;20.70;99.90;;;;;;5072026;28;20059;-62
2023/06/27 09:10:34;;;;;;;0.90;0.13;;;20.40;99.90;;;;;;5071849;28;20056;-61
2023/06/27 09:13:01;;;;;;;0.10;0.10;;;20.90;99.90;;;;;;5071804;28;20101;-61
2023/06/27 09:15:27;;;;;;;0.32;0.32;;;20.80;99.90;;;;;;5071682;28;20059;-62
2023/06/27 09:17:52;;;;;;;0.10;0.10;;;21.10;99.90;;;;;;5070670;28;20056;-61
2023/06/27 09:20:19;;;;;;;0.13;0.13;;;21.10;99.90;;;;;;5071527;28;20052;-61
2023/06/27 09:22:45;;;;;;;0.00;0.00;;;21.40;99.90;;;;;;5071923;28;20056;-61
2023/06/27 09:25:12;;;;;;;0.10;0.10;;;21.50;99.90;;;;;;5071773;28;20041;-62
2023/06/27 09:27:38;;;;;;;0.10;0.10;;;20.90;99.90;;;;;;5071524;28;20068;-62
2023/06/27 09:30:11;;;;;;;0.20;0.20;;;21.20;99.90;;;;;;5071437;28;20053;-62
2023/06/27 09:32:53;;;;;;;0.10;0.10;;;21.30;99.90;;;;;;5071476;28;20424;-63
2023/06/27 09:35:19;;;;;;;2.15;0.55;;;21.40;99.90;;;;;;5071328;28;20809;-61
2023/06/27 09:37:45;;;;;;;0.00;0.00;;;21.20;99.90;;;;;;5071447;28;20060;-61
2023/06/27 09:40:24;;;;;;;0.20;0.20;;;21.40;99.90;;;;;;5071391;28;20166;-62
2023/06/27 09:42:52;;;;;;;0.22;0.20;;;20.80;99.90;;;;;;5071258;28;20056;-62
2023/06/27 09:45:19;;;;;;;0.10;0.10;;;20.80;99.90;;;;;;5071215;28;20048;-61
2023/06/27 09:47:51;;;;;;;0.10;0.10;;;20.40;99.90;;;;;;5071441;28;20048;-61
2023/06/27 09:50:23;;;;;;;0.10;0.10;;;21.00;99.90;;;;;;5070734;28;20139;-61
2023/06/27 09:53:08;;;;;;;0.10;0.10;;;20.90;99.90;;;;;;5071265;28;20047;-61
2023/06/27 09:55:33;;;;;;;0.30;0.10;;;21.00;99.90;;;;;;5071166;28;20047;-62
2023/06/27 09:57:59;;;;;;;0.10;0.10;;;20.90;99.90;;;;;;5071030;28;20435;-62
2023/06/27 10:00:26;;;;;;;0.20;0.15;;;20.80;99.90;;;;;;5071205;28;20053;-62
2023/06/27 10:02:53;;;;;;;0.17;0.17;;;21.10;99.90;;;;;;5070686;28;20403;-61
2023/06/27 10:05:20;;;;;;;0.20;0.20;;;20.80;99.90;;;;;;5071105;28;20091;-62
2023/06/27 10:07:49;;;;;;;0.10;0.10;;;21.10;99.90;;;;;;5071088;28;20052;-61
2023/06/27 10:10:15;;;;;;;0.25;0.17;;;21.30;99.90;;;;;;5071010;28;20127;-61
2023/06/27 10:12:44;;;;;;;0.10;0.10;;;20.70;99.90;;;;;;5070893;28;20052;-63
2023/06/27 10:15:11;;;;;;;0.10;0.10;;;21.20;99.90;;;;;;5071130;28;20053;-62
2023/06/27 10:17:37;;;;;;;0.70;0.50;;;21.20;99.90;;;;;;5071288;28;20044;-63
2023/06/27 10:20:08;;;;;;;0.20;0.20;;;21.20;99.90;;;;;;5071006;28;20553;-62
2023/06/27 10:22:37;;;;;;;0.10;0.10;;;21.10;99.90;;;;;;5070971;28;20052;-62
2023/06/27 10:25:05;;;;;;;4.28;0.30;;;21.20;99.90;;;;;;5070967;28;20075;-62
2023/06/27 10:27:38;;;;;;;0.05;0.05;;;21.40;99.90;;;;;;5071089;28;20088;-62
2023/06/27 10:30:09;;;;;;;1.25;0.68;;;21.00;99.90;;;;;;5071141;28;20050;-63
2023/06/27 10:32:45;;;;;;;0.35;0.35;;;21.40;99.90;;;;;;5071106;28;20132;-62
2023/06/27 10:35:31;;;;;;;0.20;0.20;;;21.50;99.90;;;;;;5070801;28;20076;-61
2023/06/27 10:38:14;;;;;;;0.10;0.10;;;21.60;99.90;;;;;;5070895;28;20149;-61
2023/06/27 10:40:58;;;;;;;0.85;0.52;;;21.20;99.90;;;;;;5070861;28;20141;-61
2023/06/27 10:43:48;;;;;;;0.10;0.10;;;21.60;99.90;;;;;;5070634;28;20136;-62
2023/06/27 10:46:22;;;;;;;0.00;0.00;;;21.70;99.90;;;;;;5070839;28;20049;-62
2023/06/27 10:48:50;;;;;;;0.65;0.30;;;21.60;99.90;;;;;;5070746;28;20055;-61
2023/06/27 10:51:21;;;;;;;0.25;0.25;;;21.70;99.90;;;;;;5070631;28;20051;-61
2023/06/27 10:54:08;;;;;;;0.10;0.10;;;21.70;99.90;;;;;;5070661;28;20068;-61
2023/06/27 10:56:45;;;;;;;0.22;0.22;;;21.60;99.90;;;;;;5070456;28;20052;-62
2023/06/27 10:59:14;;;;;;;0.10;0.10;;;21.70;99.90;;;;;;5070606;28;20045;-62
2023/06/27 11:01:50;;;;;;;1.55;1.45;;;21.90;99.90;;;;;;5071438;28;20062;-62
2023/06/27 11:04:20;;;;;;;0.10;0.10;;;22.20;99.90;;;;;;5074396;28;20052;-62
2023/06/27 11:06:47;;;;;;;0.65;0.32;;;21.90;99.90;;;;;;5072859;28;20492;-63
2023/06/27 11:09:15;;;;;;;0.40;0.40;;;21.70;99.90;;;;;;5074356;28;20133;-62
2023/06/27 11:11:41;;;;;;;0.10;0.10;;;22.10;99.90;;;;;;5074332;28;20048;-62
2023/06/27 11:14:08;;;;;;;4.40;1.65;;;21.60;99.90;;;;;;5074284;28;20128;-62
2023/06/27 11:16:35;;;;;;;0.20;0.20;;;21.40;99.90;;;;;;5074069;28;20092;-62
2023/06/27 11:19:04;;;;;;;0.03;0.03;;;21.80;99.90;;;;;;5073973;28;20488;-62
2023/06/27 11:21:31;;;;;;;0.10;0.10;;;21.20;99.90;;;;;;5073844;28;20071;-61
2023/06/27 11:23:59;;;;;;;0.30;0.30;;;21.20;99.90;;;;;;5073976;28;20043;-62
2023/06/27 11:26:26;;;;;;;0.30;0.30;;;21.00;99.90;;;;;;5073946;28;20514;-62
2023/06/27 11:28:52;;;;;;;0.30;0.30;;;21.30;99.90;;;;;;5073987;28;20044;-62
2023/06/27 11:31:18;;;;;;;0.20;0.20;;;21.10;99.90;;;;;;5072852;28;20349;-62
2023/06/27 11:33:44;;;;;;;0.10;0.10;;;21.50;99.90;;;;;;5073729;28;20052;-62
2023/06/27 11:36:09;;;;;;;0.20;0.20;;;21.70;99.90;;;;;;5073580;28;20093;-62
2023/06/27 11:38:36;;;;;;;0.10;0.10;;;21.80;99.90;;;;;;5073638;28;20033;-61
2023/06/27 11:41:02;;;;;;;0.28;0.28;;;19.30;99.90;;;;;;5073737;28;20048;-61
2023/06/27 11:43:27;;;;;;;0.10;0.10;;;21.40;99.90;;;;;;5073635;28;20051;-62
2023/06/27 11:46:00;;;;;;;0.40;0.40;;;21.40;99.90;;;;;;5073682;28;20408;-62
2023/06/27 11:48:27;;;;;;;0.38;0.20;;;21.20;99.90;;;;;;5073701;28;20183;-62
2023/06/27 11:51:07;;;;;;;0.20;0.20;;;21.30;99.90;;;;;;5072500;28;20075;-62
2023/06/27 11:53:34;;;;;;;6.63;0.50;;;21.40;99.90;;;;;;5073941;28;20438;-63
2023/06/27 11:56:01;;;;;;;0.30;0.30;;;21.20;99.90;;;;;;5073624;28;20076;-62
2023/06/27 11:58:36;;;;;;;0.20;0.20;;;21.30;99.90;;;;;;5073542;28;20055;-62
2023/06/27 12:01:13;;;;;;;0.10;0.10;;;21.10;99.90;;;;;;5073329;28;20414;-61
2023/06/27 12:03:40;;;;;;;5.15;0.35;;;21.20;99.90;;;;;;5073240;28;20052;-62
2023/06/27 12:06:21;;;;;;;10.32;0.60;;;21.10;99.90;;;;;;5073273;28;20560;-62
2023/06/27 12:08:47;;;;;;;0.17;0.17;;;21.00;99.90;;;;;;5073416;28;20037;-61
2023/06/27 12:11:13;;;;;;;0.40;0.40;;;21.00;99.90;;;;;;5073350;28;20059;-62
2023/06/27 12:13:38;;;;;;;0.10;0.10;;;20.80;99.90;;;;;;5072914;28;20145;-63
2023/06/27 12:16:04;;;;;;;0.00;0.00;;;20.70;99.90;;;;;;5073198;28;20048;-61
2023/06/27 12:18:31;;;;;;;0.10;0.10;;;20.90;99.90;;;;;;5073039;28;20053;-62
2023/06/27 12:20:59;;;;;;;0.32;0.32;;;20.80;99.90;;;;;;5072869;28;20049;-61
2023/06/27 12:23:29;;;;;;;0.40;0.30;;;20.90;99.90;;;;;;5072633;28;20045;-62
2023/06/27 12:25:55;;;;;;;0.10;0.10;;;20.60;99.90;;;;;;5072524;28;20482;-63
2023/06/27 12:28:24;;;;;;;0.10;0.10;;;20.60;99.90;;;;;;5072854;28;20079;-62
2023/06/27 12:30:49;;;;;;;0.10;0.10;;;20.50;99.90;;;;;;5072755;28;20044;-62
2023/06/27 12:33:15;;;;;;;5.65;0.30;;;21.10;99.90;;;;;;5072673;28;20071;-62
2023/06/27 12:35:41;;;;;;;0.17;0.17;;;21.30;99.90;;;;;;5072476;28;20055;-62
2023/06/27 12:38:06;;;;;;;0.32;0.20;;;21.40;99.90;;;;;;5072365;28;20048;-61
2023/06/27 12:40:32;;;;;;;0.30;0.30;;;21.50;99.90;;;;;;5072245;28;20563;-62
2023/06/27 12:42:58;;;;;;;0.25;0.25;;;21.30;99.90;;;;;;5072317;28;20374;-62
2023/06/27 12:45:23;;;;;;;1.65;0.47;;;21.30;99.90;;;;;;5072337;28;20044;-62
2023/06/27 12:47:49;;;;;;;0.10;0.10;;;21.20;99.90;;;;;;5072113;28;20052;-63
2023/06/27 12:50:16;;;;;;;0.10;0.10;;;21.70;99.90;;;;;;5072270;28;20090;-62
2023/06/27 12:52:48;;;;;;;0.10;0.10;;;21.60;99.90;;;;;;5072148;28;20111;-63